createdAt,value
2017-07-17T00:00:01.817Z,46.59
2017-07-17T00:01:01.844Z,46.69
2017-07-17T00:02:01.541Z,46.78
2017-07-17T00:03:01.563Z,46.69
2017-07-17T00:04:01.916Z,46.59
2017-07-17T00:05:01.614Z,46.69
2017-07-17T00:06:01.960Z,46.97
2017-07-17T00:07:01.988Z,46.78
2017-07-17T00:08:01.690Z,46.97
2017-07-17T00:09:02.035Z,47.45
2017-07-17T00:10:02.063Z,46.69
2017-07-17T00:11:01.761Z,46.95
2017-07-17T00:12:02.125Z,46.97
2017-07-17T00:13:01.812Z,46.78
2017-07-17T00:14:02.168Z,47.14
2017-07-17T00:15:02.197Z,46.97
2017-07-17T00:16:02.210Z,47.24
2017-07-17T00:17:02.235Z,47.05
2017-07-17T00:18:02.256Z,47.14
2017-07-17T00:19:01.961Z,46.95
2017-07-17T00:20:02.312Z,47.05
2017-07-17T00:21:02.008Z,46.95
2017-07-17T00:22:02.358Z,46.86
2017-07-17T00:23:02.060Z,47.05
2017-07-17T00:24:02.403Z,46.86
2017-07-17T00:25:02.107Z,47.05
2017-07-17T00:26:02.458Z,47.14
2017-07-17T00:27:02.156Z,47.05
2017-07-17T00:28:02.182Z,47.14
2017-07-17T00:29:02.206Z,47.34
2017-07-17T00:30:02.552Z,47.24
2017-07-17T00:31:02.254Z,47.05
2017-07-17T00:32:02.606Z,47.44
2017-07-17T00:33:02.306Z,47.44
2017-07-17T00:34:02.338Z,47.34
2017-07-17T00:35:02.678Z,47.24
2017-07-17T00:36:02.698Z,47.14
2017-07-17T00:37:02.404Z,46.86
2017-07-17T00:38:02.751Z,47.51
2017-07-17T00:39:02.829Z,47.44
2017-07-17T00:40:02.497Z,47.53
2017-07-17T00:41:02.827Z,47.44
2017-07-17T00:42:02.858Z,47.14
2017-07-17T00:43:02.560Z,47.14
2017-07-17T00:44:02.904Z,47.22
2017-07-17T00:45:02.922Z,47.7
2017-07-17T00:46:02.953Z,47.12
2017-07-17T00:47:02.974Z,47.22
2017-07-17T00:48:03.004Z,47.51
2017-07-17T00:49:02.697Z,47.7
2017-07-17T00:50:03.043Z,47.99
2017-07-17T00:51:03.071Z,47.8
2017-07-17T00:52:02.795Z,47.6
2017-07-17T00:53:02.800Z,47.8
2017-07-17T00:54:02.840Z,47.31
2017-07-17T00:55:03.166Z,47.89
2017-07-17T00:56:02.893Z,47.99
2017-07-17T00:57:02.897Z,48.08
2017-07-17T00:58:03.240Z,48.08
2017-07-17T00:59:03.264Z,47.7
2017-07-17T01:00:03.301Z,48.47
2017-07-17T01:01:02.992Z,48.38
2017-07-17T01:02:03.075Z,48.38
2017-07-17T01:03:03.383Z,48.47
2017-07-17T01:04:03.091Z,48.66
2017-07-17T01:05:03.420Z,48.08
2017-07-17T01:06:03.136Z,48.66
2017-07-17T01:07:03.465Z,48.76
2017-07-17T01:08:03.176Z,48.18
2017-07-17T01:09:03.191Z,47.99
2017-07-17T01:10:03.217Z,48.47
2017-07-17T01:11:03.240Z,48.47
2017-07-17T01:12:03.586Z,48.38
2017-07-17T01:13:03.283Z,48.76
2017-07-17T01:14:03.634Z,48.28
2017-07-17T01:15:03.655Z,48.38
2017-07-17T01:16:03.689Z,48.66
2017-07-17T01:17:03.708Z,48.76
2017-07-17T01:18:03.404Z,48.66
2017-07-17T01:19:03.752Z,48.66
2017-07-17T01:20:03.778Z,48.54
2017-07-17T01:21:03.479Z,48.44
2017-07-17T01:22:03.838Z,48.47
2017-07-17T01:23:03.847Z,48.76
2017-07-17T01:24:03.874Z,48.95
2017-07-17T01:25:03.897Z,48.57
2017-07-17T01:26:03.596Z,48.86
2017-07-17T01:27:03.619Z,48.86
2017-07-17T01:28:03.660Z,49.02
2017-07-17T01:29:03.668Z,48.95
2017-07-17T01:30:04.017Z,48.74
2017-07-17T01:31:03.725Z,49.02
2017-07-17T01:32:04.203Z,49.02
2017-07-17T01:33:04.088Z,49.79
2017-07-17T01:34:03.791Z,49.91
2017-07-17T01:35:03.813Z,49.53
2017-07-17T01:36:03.868Z,49.34
2017-07-17T01:37:03.891Z,49.41
2017-07-17T01:38:04.210Z,49.34
2017-07-17T01:39:04.268Z,49.53
2017-07-17T01:40:04.297Z,49.43
2017-07-17T01:41:04.337Z,49.91
2017-07-17T01:42:03.981Z,49.51
2017-07-17T01:43:04.012Z,49.73
2017-07-17T01:44:04.355Z,49.91
2017-07-17T01:45:04.381Z,49.6
2017-07-17T01:46:04.404Z,49.73
2017-07-17T01:47:04.425Z,49.63
2017-07-17T01:48:04.129Z,49.63
2017-07-17T01:49:04.473Z,49.99
2017-07-17T01:50:04.498Z,50.21
2017-07-17T01:51:04.200Z,49.79
2017-07-17T01:52:04.546Z,49.7
2017-07-17T01:53:04.250Z,50.01
2017-07-17T01:54:04.599Z,49.7
2017-07-17T01:55:04.633Z,49.89
2017-07-17T01:56:04.641Z,49.79
2017-07-17T01:57:04.668Z,49.89
2017-07-17T01:58:04.368Z,50.18
2017-07-17T01:59:04.715Z,50.11
2017-07-17T02:00:04.743Z,50.09
2017-07-17T02:01:04.763Z,50.18
2017-07-17T02:02:04.469Z,50.18
2017-07-17T02:03:04.809Z,50.27
2017-07-17T02:04:04.514Z,50.18
2017-07-17T02:05:04.536Z,51.05
2017-07-17T02:06:04.881Z,50.37
2017-07-17T02:07:04.584Z,50.18
2017-07-17T02:08:04.614Z,50.76
2017-07-17T02:09:04.950Z,50.37
2017-07-17T02:10:04.659Z,50.27
2017-07-17T02:11:04.678Z,50.76
2017-07-17T02:12:04.707Z,50.47
2017-07-17T02:13:04.739Z,50.66
2017-07-17T02:14:04.748Z,51.05
2017-07-17T02:15:04.775Z,51.05
2017-07-17T02:16:04.804Z,50.47
2017-07-17T02:17:05.360Z,50.57
2017-07-17T02:18:05.280Z,50.66
2017-07-17T02:19:05.194Z,50.37
2017-07-17T02:20:05.219Z,50.57
2017-07-17T02:21:05.241Z,50.27
2017-07-17T02:22:05.264Z,50.27
2017-07-17T02:23:05.285Z,51.14
2017-07-17T02:24:04.989Z,50.47
2017-07-17T02:25:05.337Z,51.05
2017-07-17T02:26:05.049Z,50.47
2017-07-17T02:27:05.388Z,50.95
2017-07-17T02:28:05.411Z,50.66
2017-07-17T02:29:05.437Z,50.95
2017-07-17T02:30:05.461Z,50.66
2017-07-17T02:31:05.483Z,50.66
2017-07-17T02:32:05.187Z,50.85
2017-07-17T02:33:05.551Z,50.95
2017-07-17T02:34:05.228Z,50.66
2017-07-17T02:35:05.249Z,50.76
2017-07-17T02:36:05.283Z,50.85
2017-07-17T02:37:05.296Z,50.76
2017-07-17T02:38:05.322Z,51.05
2017-07-17T02:39:07.089Z,50.95
2017-07-17T02:40:05.694Z,51.05
2017-07-17T02:41:05.717Z,51.05
2017-07-17T02:42:05.750Z,50.76
2017-07-17T02:43:05.441Z,50.95
2017-07-17T02:44:05.785Z,50.85
2017-07-17T02:45:05.491Z,50.85
2017-07-17T02:46:05.515Z,50.76
2017-07-17T02:47:05.540Z,50.37
2017-07-17T02:48:05.883Z,50.76
2017-07-17T02:49:05.582Z,50.66
2017-07-17T02:50:05.609Z,51.05
2017-07-17T02:51:05.630Z,50.76
2017-07-17T02:52:05.655Z,51.05
2017-07-17T02:53:06.035Z,50.66
2017-07-17T02:54:06.024Z,50.66
2017-07-17T02:55:06.059Z,50.95
2017-07-17T02:56:05.751Z,51.05
2017-07-17T02:57:06.096Z,50.66
2017-07-17T02:58:05.800Z,50.85
2017-07-17T02:59:05.870Z,50.66
2017-07-17T03:00:06.171Z,50.76
2017-07-17T03:01:05.872Z,50.85
2017-07-17T03:02:05.895Z,50.95
2017-07-17T03:03:05.918Z,50.76
2017-07-17T03:04:06.167Z,50.85
2017-07-17T03:05:05.967Z,50.57
2017-07-17T03:06:05.986Z,50.85
2017-07-17T03:07:06.333Z,50.66
2017-07-17T03:08:06.035Z,50.76
2017-07-17T03:09:06.379Z,50.76
2017-07-17T03:10:06.086Z,50.76
2017-07-17T03:11:06.441Z,50.66
2017-07-17T03:12:06.495Z,51.14
2017-07-17T03:13:06.155Z,51.14
2017-07-17T03:14:06.177Z,51.14
2017-07-17T03:15:06.523Z,51.14
2017-07-17T03:16:06.227Z,51.24
2017-07-17T03:17:06.569Z,51.05
2017-07-17T03:18:06.599Z,51.53
2017-07-17T03:19:06.297Z,51.43
2017-07-17T03:20:06.638Z,51.14
2017-07-17T03:21:06.666Z,51.14
2017-07-17T03:22:06.367Z,51.24
2017-07-17T03:23:06.755Z,51.24
2017-07-17T03:24:06.413Z,51.34
2017-07-17T03:25:06.765Z,51.72
2017-07-17T03:26:06.786Z,51.62
2017-07-17T03:27:06.495Z,51.41
2017-07-17T03:28:06.830Z,51.34
2017-07-17T03:29:06.854Z,51.53
2017-07-17T03:30:06.877Z,51.43
2017-07-17T03:31:07.019Z,51.92
2017-07-17T03:32:06.603Z,52.11
2017-07-17T03:33:06.741Z,51.89
2017-07-17T03:34:06.653Z,52.18
2017-07-17T03:35:06.788Z,51.82
2017-07-17T03:36:07.115Z,51.89
2017-07-17T03:37:07.140Z,51.89
2017-07-17T03:38:07.163Z,52.18
2017-07-17T03:39:07.091Z,52.01
2017-07-17T03:40:06.919Z,52.27
2017-07-17T03:41:06.819Z,52.37
2017-07-17T03:42:07.164Z,52.37
2017-07-17T03:43:07.196Z,52.37
2017-07-17T03:44:07.208Z,52.37
2017-07-17T03:45:07.381Z,52.27
2017-07-17T03:46:07.260Z,52.56
2017-07-17T03:47:07.284Z,52.75
2017-07-17T03:48:06.983Z,52.85
2017-07-17T03:49:07.008Z,52.85
2017-07-17T03:50:07.357Z,52.85
2017-07-17T03:51:07.053Z,52.95
2017-07-17T03:52:07.134Z,52.95
2017-07-17T03:53:07.426Z,52.95
2017-07-17T03:54:07.445Z,52.85
2017-07-17T03:55:07.604Z,52.75
2017-07-17T03:56:07.179Z,52.85
2017-07-17T03:57:07.518Z,52.85
2017-07-17T03:58:07.219Z,52.95
2017-07-17T03:59:07.365Z,52.95
2017-07-17T04:00:07.596Z,52.75
2017-07-17T04:01:07.707Z,52.85
2017-07-17T04:02:07.639Z,52.95
2017-07-17T04:03:07.663Z,53.33
2017-07-17T04:04:07.455Z,53.14
2017-07-17T04:05:07.386Z,53.14
2017-07-17T04:06:07.407Z,53.05
2017-07-17T04:07:07.756Z,53.14
2017-07-17T04:08:07.780Z,52.95
2017-07-17T04:09:07.805Z,53.23
2017-07-17T04:10:07.503Z,53.43
2017-07-17T04:11:07.851Z,53.33
2017-07-17T04:12:07.998Z,53.14
2017-07-17T04:13:07.662Z,53.05
2017-07-17T04:14:07.690Z,53.33
2017-07-17T04:15:08.171Z,53.72
2017-07-17T04:16:08.116Z,52.95
2017-07-17T04:17:07.989Z,53.33
2017-07-17T04:18:08.016Z,54
2017-07-17T04:19:08.039Z,53.81
2017-07-17T04:20:08.066Z,53.91
2017-07-17T04:21:08.085Z,53.23
2017-07-17T04:22:08.117Z,53.23
2017-07-17T04:23:07.808Z,53.33
2017-07-17T04:24:07.862Z,53.43
2017-07-17T04:25:08.179Z,53.81
2017-07-17T04:26:07.878Z,53.72
2017-07-17T04:27:08.226Z,53.91
2017-07-17T04:28:08.251Z,53.72
2017-07-17T04:29:08.271Z,53.72
2017-07-17T04:30:08.296Z,53.81
2017-07-17T04:31:08.320Z,53.14
2017-07-17T04:32:08.344Z,54
2017-07-17T04:33:08.368Z,53.81
2017-07-17T04:34:08.075Z,53.72
2017-07-17T04:35:08.098Z,53.81
2017-07-17T04:36:08.449Z,54.3
2017-07-17T04:37:08.462Z,54.49
2017-07-17T04:38:08.483Z,54.3
2017-07-17T04:39:08.507Z,54.2
2017-07-17T04:40:08.295Z,54.97
2017-07-17T04:41:08.233Z,54.49
2017-07-17T04:42:08.256Z,54.39
2017-07-17T04:43:08.611Z,54.58
2017-07-17T04:44:08.628Z,54.58
2017-07-17T04:45:08.649Z,54.2
2017-07-17T04:46:08.674Z,54.58
2017-07-17T04:47:08.374Z,54.3
2017-07-17T04:48:08.718Z,54.39
2017-07-17T04:49:08.742Z,55.07
2017-07-17T04:50:08.767Z,54.58
2017-07-17T04:51:08.791Z,54.68
2017-07-17T04:52:08.817Z,54.49
2017-07-17T04:53:08.842Z,54.2
2017-07-17T04:54:08.538Z,54.97
2017-07-17T04:55:08.884Z,54.87
2017-07-17T04:56:08.911Z,55.07
2017-07-17T04:57:08.611Z,55.07
2017-07-17T04:58:08.961Z,54.97
2017-07-17T04:59:08.981Z,54.87
2017-07-17T05:00:09.002Z,54.78
2017-07-17T05:01:08.700Z,54.68
2017-07-17T05:02:08.726Z,54.78
2017-07-17T05:03:09.081Z,55.16
2017-07-17T05:04:09.097Z,54.68
2017-07-17T05:05:09.116Z,54.58
2017-07-17T05:06:09.142Z,55.16
2017-07-17T05:07:09.167Z,54.39
2017-07-17T05:08:09.190Z,54.49
2017-07-17T05:09:08.892Z,55.16
2017-07-17T05:10:09.239Z,55.35
2017-07-17T05:11:08.939Z,54.68
2017-07-17T05:12:09.285Z,55.26
2017-07-17T05:13:09.309Z,55.26
2017-07-17T05:14:09.042Z,54.87
2017-07-17T05:15:09.357Z,54.68
2017-07-17T05:16:09.381Z,55.45
2017-07-17T05:17:09.079Z,55.45
2017-07-17T05:18:09.102Z,56.12
2017-07-17T05:19:09.445Z,55.93
2017-07-17T05:20:09.153Z,55.83
2017-07-17T05:21:09.492Z,55.83
2017-07-17T05:22:09.521Z,55.35
2017-07-17T05:23:09.545Z,55.65
2017-07-17T05:24:09.562Z,55.65
2017-07-17T05:25:09.593Z,55.74
2017-07-17T05:26:09.616Z,55.83
2017-07-17T05:27:09.639Z,55.35
2017-07-17T05:28:09.488Z,55.74
2017-07-17T05:29:09.683Z,56.03
2017-07-17T05:30:09.710Z,55.93
2017-07-17T05:31:09.733Z,55.83
2017-07-17T05:32:09.762Z,55.93
2017-07-17T05:33:09.777Z,55.74
2017-07-17T05:34:09.801Z,55.74
2017-07-17T05:35:09.865Z,55.65
2017-07-17T05:36:09.939Z,55.93
2017-07-17T05:37:09.665Z,55.35
2017-07-17T05:38:09.896Z,55.55
2017-07-17T05:39:09.918Z,55.55
2017-07-17T05:40:09.940Z,55.65
2017-07-17T05:41:09.971Z,56.03
2017-07-17T05:42:09.989Z,55.93
2017-07-17T05:43:09.687Z,55.83
2017-07-17T05:44:09.713Z,55.93
2017-07-17T05:45:10.058Z,55.93
2017-07-17T05:46:09.758Z,55.45
2017-07-17T05:47:09.784Z,55.26
2017-07-17T05:48:09.809Z,55.45
2017-07-17T05:49:10.151Z,55.55
2017-07-17T05:50:10.176Z,55.55
2017-07-17T05:51:09.878Z,55.35
2017-07-17T05:52:10.223Z,55.55
2017-07-17T05:53:09.925Z,54.68
2017-07-17T05:54:09.946Z,55.26
2017-07-17T05:55:10.297Z,55.26
2017-07-17T05:56:10.316Z,54.58
2017-07-17T05:57:10.343Z,55.35
2017-07-17T05:58:10.362Z,55.26
2017-07-17T05:59:10.065Z,55.45
2017-07-17T06:00:10.087Z,55.26
2017-07-17T06:01:10.453Z,54.58
2017-07-17T06:02:10.462Z,55.45
2017-07-17T06:03:10.482Z,55.35
2017-07-17T06:04:10.501Z,54.87
2017-07-17T06:05:10.531Z,54.78
2017-07-17T06:06:10.556Z,54.78
2017-07-17T06:07:10.578Z,55.45
2017-07-17T06:08:10.663Z,55.26
2017-07-17T06:09:10.721Z,55.16
2017-07-17T06:10:10.719Z,55.45
2017-07-17T06:11:10.667Z,55.45
2017-07-17T06:12:10.696Z,54.87
2017-07-17T06:13:10.714Z,55.26
2017-07-17T06:14:10.750Z,55.45
2017-07-17T06:15:10.447Z,55.16
2017-07-17T06:16:10.788Z,55.45
2017-07-17T06:17:10.814Z,55.45
2017-07-17T06:18:10.512Z,55.55
2017-07-17T06:19:10.535Z,55.45
2017-07-17T06:20:10.876Z,55.45
2017-07-17T06:21:10.581Z,55.35
2017-07-17T06:22:10.608Z,55.83
2017-07-17T06:23:10.629Z,55.45
2017-07-17T06:24:10.655Z,55.35
2017-07-17T06:25:11.000Z,55.19
2017-07-17T06:26:11.025Z,55.16
2017-07-17T06:27:11.095Z,55.19
2017-07-17T06:28:11.070Z,54.8
2017-07-17T06:29:11.097Z,55.19
2017-07-17T06:30:11.116Z,55.29
2017-07-17T06:31:10.817Z,54.71
2017-07-17T06:32:10.845Z,54.42
2017-07-17T06:33:11.186Z,55.19
2017-07-17T06:34:10.888Z,54.42
2017-07-17T06:35:11.229Z,54.8
2017-07-17T06:36:11.256Z,54.52
2017-07-17T06:37:10.960Z,54.71
2017-07-17T06:38:11.308Z,54.71
2017-07-17T06:39:11.009Z,54.42
2017-07-17T06:40:11.357Z,54.8
2017-07-17T06:41:11.380Z,54.8
2017-07-17T06:42:11.406Z,54.71
2017-07-17T06:43:11.428Z,54.32
2017-07-17T06:44:11.446Z,54.8
2017-07-17T06:45:11.469Z,54.61
2017-07-17T06:46:11.495Z,54.42
2017-07-17T06:47:11.521Z,55.09
2017-07-17T06:48:11.542Z,55.09
2017-07-17T06:49:11.570Z,54.52
2017-07-17T06:50:11.270Z,54.8
2017-07-17T06:51:11.618Z,54.71
2017-07-17T06:52:11.635Z,54.42
2017-07-17T06:53:11.338Z,54.42
2017-07-17T06:54:11.360Z,54.71
2017-07-17T06:55:11.711Z,54.61
2017-07-17T06:56:11.410Z,53.94
2017-07-17T06:57:11.759Z,53.94
2017-07-17T06:58:11.782Z,54.54
2017-07-17T06:59:11.482Z,54.16
2017-07-17T07:00:11.831Z,55
2017-07-17T07:01:11.852Z,54.93
2017-07-17T07:02:11.885Z,55.12
2017-07-17T07:03:11.902Z,55.02
2017-07-17T07:04:11.926Z,55.22
2017-07-17T07:05:11.950Z,55.31
2017-07-17T07:06:11.644Z,55.38
2017-07-17T07:07:11.668Z,54.93
2017-07-17T07:08:12.013Z,54.74
2017-07-17T07:09:12.043Z,55.22
2017-07-17T07:10:11.743Z,54.83
2017-07-17T07:11:11.765Z,55.22
2017-07-17T07:12:12.112Z,55.02
2017-07-17T07:13:11.814Z,54.74
2017-07-17T07:14:12.166Z,54.93
2017-07-17T07:15:11.862Z,55.12
2017-07-17T07:16:12.209Z,55.31
2017-07-17T07:17:12.234Z,55.31
2017-07-17T07:18:11.931Z,54.83
2017-07-17T07:19:12.284Z,55.02
2017-07-17T07:20:11.981Z,54.66
2017-07-17T07:21:12.001Z,55.15
2017-07-17T07:22:12.029Z,54.47
2017-07-17T07:23:12.054Z,54.76
2017-07-17T07:24:12.398Z,54.96
2017-07-17T07:25:12.424Z,54.76
2017-07-17T07:26:12.447Z,54.86
2017-07-17T07:27:12.473Z,54.57
2017-07-17T07:28:12.500Z,54.66
2017-07-17T07:29:12.517Z,54.47
2017-07-17T07:30:12.218Z,54.57
2017-07-17T07:31:12.562Z,55.24
2017-07-17T07:32:12.272Z,55.34
2017-07-17T07:33:12.292Z,54.86
2017-07-17T07:34:12.319Z,55.24
2017-07-17T07:35:12.666Z,54.96
2017-07-17T07:36:12.717Z,55.24
2017-07-17T07:37:12.388Z,55.24
2017-07-17T07:38:12.740Z,54.86
2017-07-17T07:39:12.436Z,55.24
2017-07-17T07:40:12.782Z,55.27
2017-07-17T07:41:12.811Z,54.5
2017-07-17T07:42:12.510Z,54.98
2017-07-17T07:43:12.533Z,54.6
2017-07-17T07:44:12.886Z,54.31
2017-07-17T07:45:12.912Z,54.11
2017-07-17T07:46:12.606Z,54.88
2017-07-17T07:47:12.954Z,54.79
2017-07-17T07:48:12.979Z,55.46
2017-07-17T07:49:13.009Z,56.04
2017-07-17T07:50:13.027Z,56.04
2017-07-17T07:51:13.056Z,55.76
2017-07-17T07:52:12.756Z,56.33
2017-07-17T07:53:13.098Z,56.33
2017-07-17T07:54:12.800Z,56.36
2017-07-17T07:55:13.147Z,56.14
2017-07-17T07:56:13.181Z,56.36
2017-07-17T07:57:13.201Z,56.65
2017-07-17T07:58:12.898Z,56.74
2017-07-17T07:59:13.249Z,56.46
2017-07-17T08:00:13.270Z,56.74
2017-07-17T08:01:13.299Z,56.84
2017-07-17T08:02:13.319Z,57.04
2017-07-17T08:03:13.344Z,56.87
2017-07-17T08:04:13.366Z,56.68
2017-07-17T08:05:13.396Z,56.58
2017-07-17T08:06:13.095Z,56.87
2017-07-17T08:07:13.120Z,56.29
2017-07-17T08:08:13.466Z,56.48
2017-07-17T08:09:13.491Z,56.29
2017-07-17T08:10:13.192Z,55.81
2017-07-17T08:11:13.541Z,55.65
2017-07-17T08:12:13.564Z,55.65
2017-07-17T08:13:13.710Z,55.55
2017-07-17T08:14:13.709Z,56.13
2017-07-17T08:15:13.410Z,56.22
2017-07-17T08:16:13.569Z,56.22
2017-07-17T08:17:13.891Z,56.22
2017-07-17T08:18:13.890Z,55.55
2017-07-17T08:19:13.933Z,55.55
2017-07-17T08:20:13.888Z,55.74
2017-07-17T08:21:13.569Z,55.55
2017-07-17T08:22:14.018Z,55.55
2017-07-17T08:23:14.032Z,55.45
2017-07-17T08:24:14.036Z,54.77
2017-07-17T08:25:14.031Z,54.87
2017-07-17T08:26:13.809Z,54.03
2017-07-17T08:27:14.032Z,54.71
2017-07-17T08:28:14.097Z,53.74
2017-07-17T08:29:13.742Z,54.03
2017-07-17T08:30:13.779Z,54.32
2017-07-17T08:31:13.784Z,54.13
2017-07-17T08:32:14.110Z,54.32
2017-07-17T08:33:13.779Z,54.61
2017-07-17T08:34:13.792Z,55.11
2017-07-17T08:35:13.817Z,54.53
2017-07-17T08:36:13.844Z,53.96
2017-07-17T08:37:14.186Z,53.47
2017-07-17T08:38:13.895Z,53.57
2017-07-17T08:39:14.240Z,53.57
2017-07-17T08:40:13.942Z,53.28
2017-07-17T08:41:13.967Z,53.38
2017-07-17T08:42:13.992Z,53.28
2017-07-17T08:43:14.020Z,53.28
2017-07-17T08:44:14.425Z,53.38
2017-07-17T08:45:14.498Z,53.02
2017-07-17T08:46:14.506Z,52.82
2017-07-17T08:47:14.531Z,52.73
2017-07-17T08:48:14.147Z,53.41
2017-07-17T08:49:14.528Z,53.28
2017-07-17T08:50:14.331Z,53.99
2017-07-17T08:51:14.345Z,54.27
2017-07-17T08:52:14.667Z,54.57
2017-07-17T08:53:14.827Z,54.37
2017-07-17T08:54:14.507Z,54.17
2017-07-17T08:55:14.829Z,54.08
2017-07-17T08:56:14.828Z,54.73
2017-07-17T08:57:14.825Z,54.93
2017-07-17T08:58:14.959Z,54.83
2017-07-17T08:59:14.755Z,54.93
2017-07-17T09:00:14.776Z,55.15
2017-07-17T09:01:14.800Z,54.73
2017-07-17T09:02:14.831Z,55.41
2017-07-17T09:03:14.851Z,55.21
2017-07-17T09:04:14.620Z,55.41
2017-07-17T09:05:14.909Z,54.93
2017-07-17T09:06:14.628Z,55.7
2017-07-17T09:07:14.955Z,55.99
2017-07-17T09:08:14.659Z,55.99
2017-07-17T09:09:15.014Z,55.99
2017-07-17T09:10:15.037Z,56.57
2017-07-17T09:11:15.076Z,56.47
2017-07-17T09:12:15.094Z,56.67
2017-07-17T09:13:14.788Z,56.86
2017-07-17T09:14:14.814Z,56.67
2017-07-17T09:15:14.843Z,57.34
2017-07-17T09:16:14.866Z,57.24
2017-07-17T09:17:15.218Z,56.76
2017-07-17T09:18:15.236Z,57.15
2017-07-17T09:19:14.942Z,57.05
2017-07-17T09:20:15.291Z,56.35
2017-07-17T09:21:15.316Z,57.03
2017-07-17T09:22:15.018Z,57.15
2017-07-17T09:23:15.041Z,57.73
2017-07-17T09:24:15.468Z,57.7
2017-07-17T09:25:15.207Z,57.7
2017-07-17T09:26:15.477Z,57.44
2017-07-17T09:27:15.474Z,56.45
2017-07-17T09:28:15.596Z,56.93
2017-07-17T09:29:15.215Z,56.73
2017-07-17T09:30:15.547Z,56.93
2017-07-17T09:31:15.575Z,56.35
2017-07-17T09:32:15.600Z,56.63
2017-07-17T09:33:15.631Z,56.45
2017-07-17T09:34:15.375Z,56.63
2017-07-17T09:35:15.376Z,56.15
2017-07-17T09:36:15.702Z,56.05
2017-07-17T09:37:15.402Z,55.96
2017-07-17T09:38:15.755Z,55.96
2017-07-17T09:39:15.775Z,56.05
2017-07-17T09:40:15.480Z,56.15
2017-07-17T09:41:15.507Z,55.77
2017-07-17T09:42:15.535Z,55.38
2017-07-17T09:43:15.965Z,55.57
2017-07-17T09:44:15.905Z,55.19
2017-07-17T09:45:15.938Z,54.9
2017-07-17T09:46:15.639Z,55.47
2017-07-17T09:47:15.662Z,54.9
2017-07-17T09:48:15.685Z,55.09
2017-07-17T09:49:16.037Z,55.41
2017-07-17T09:50:15.740Z,55.38
2017-07-17T09:51:16.086Z,55.11
2017-07-17T09:52:16.200Z,54.99
2017-07-17T09:53:16.140Z,55.38
2017-07-17T09:54:16.177Z,55.41
2017-07-17T09:55:16.185Z,55.38
2017-07-17T09:56:15.886Z,55.41
2017-07-17T09:57:15.917Z,55.57
2017-07-17T09:58:15.941Z,54.73
2017-07-17T09:59:15.972Z,54.63
2017-07-17T10:00:16.327Z,54.93
2017-07-17T10:01:16.342Z,55.41
2017-07-17T10:02:16.371Z,54.93
2017-07-17T10:03:16.400Z,54.93
2017-07-17T10:04:16.100Z,54.25
2017-07-17T10:05:16.449Z,55.21
2017-07-17T10:06:16.562Z,55.31
2017-07-17T10:07:16.502Z,54.63
2017-07-17T10:08:16.204Z,54.83
2017-07-17T10:09:16.227Z,54.73
2017-07-17T10:10:16.581Z,54.35
2017-07-17T10:11:16.286Z,54.35
2017-07-17T10:12:16.634Z,54.73
2017-07-17T10:13:16.332Z,54.44
2017-07-17T10:14:16.685Z,53.86
2017-07-17T10:15:16.706Z,53.77
2017-07-17T10:16:16.731Z,54.15
2017-07-17T10:17:16.436Z,54.53
2017-07-17T10:18:16.459Z,54.53
2017-07-17T10:19:16.483Z,53.96
2017-07-17T10:20:16.830Z,54.15
2017-07-17T10:21:16.537Z,53.47
2017-07-17T10:22:16.561Z,53.67
2017-07-17T10:23:16.915Z,53.96
2017-07-17T10:24:16.938Z,54.05
2017-07-17T10:25:16.643Z,54.15
2017-07-17T10:26:16.667Z,54.25
2017-07-17T10:27:17.023Z,54.05
2017-07-17T10:28:16.716Z,53.67
2017-07-17T10:29:17.072Z,53.96
2017-07-17T10:30:17.097Z,53.96
2017-07-17T10:31:17.124Z,53.38
2017-07-17T10:32:17.150Z,53.96
2017-07-17T10:33:17.175Z,54.05
2017-07-17T10:34:17.203Z,54.05
2017-07-17T10:35:17.225Z,53.77
2017-07-17T10:36:16.927Z,53.67
2017-07-17T10:37:17.296Z,53.86
2017-07-17T10:38:16.981Z,54.05
2017-07-17T10:39:17.336Z,53.96
2017-07-17T10:40:17.364Z,53.57
2017-07-17T10:41:17.058Z,53.59
2017-07-17T10:42:17.407Z,53.57
2017-07-17T10:43:17.111Z,53.67
2017-07-17T10:44:17.140Z,53.79
2017-07-17T10:45:17.487Z,53.59
2017-07-17T10:46:17.513Z,53.67
2017-07-17T10:47:17.535Z,53.77
2017-07-17T10:48:17.564Z,53.99
2017-07-17T10:49:17.265Z,53.19
2017-07-17T10:50:17.289Z,53.41
2017-07-17T10:51:17.639Z,53.38
2017-07-17T10:52:17.791Z,53.96
2017-07-17T10:53:17.836Z,53.96
2017-07-17T10:54:17.843Z,53.99
2017-07-17T10:55:17.843Z,53.67
2017-07-17T10:56:17.526Z,53.57
2017-07-17T10:57:17.561Z,53.57
2017-07-17T10:58:17.939Z,53.69
2017-07-17T10:59:17.911Z,53.31
2017-07-17T11:00:17.600Z,53.5
2017-07-17T11:01:17.596Z,53.02
2017-07-17T11:02:17.608Z,53.02
2017-07-17T11:03:17.955Z,53.11
2017-07-17T11:04:17.657Z,52.8
2017-07-17T11:05:18.004Z,52.92
2017-07-17T11:06:17.709Z,53.11
2017-07-17T11:07:18.186Z,53.21
2017-07-17T11:08:17.763Z,53.11
2017-07-17T11:09:18.107Z,52.82
2017-07-17T11:10:18.134Z,53.11
2017-07-17T11:11:17.841Z,52.92
2017-07-17T11:12:18.189Z,52.7
2017-07-17T11:13:17.893Z,52.7
2017-07-17T11:14:18.250Z,53.02
2017-07-17T11:15:17.941Z,53.11
2017-07-17T11:16:17.967Z,53.11
2017-07-17T11:17:18.040Z,52.92
2017-07-17T11:18:18.383Z,53.11
2017-07-17T11:19:18.493Z,52.63
2017-07-17T11:20:18.491Z,52.82
2017-07-17T11:21:18.215Z,52.92
2017-07-17T11:22:18.678Z,53.02
2017-07-17T11:23:18.684Z,52.73
2017-07-17T11:24:18.680Z,52.34
2017-07-17T11:25:18.373Z,52.82
2017-07-17T11:26:18.372Z,52.44
2017-07-17T11:27:18.689Z,52.92
2017-07-17T11:28:18.787Z,52.73
2017-07-17T11:29:18.506Z,53.02
2017-07-17T11:30:18.659Z,52.82
2017-07-17T11:31:18.361Z,52.73
2017-07-17T11:32:18.714Z,52.73
2017-07-17T11:33:18.413Z,53.02
2017-07-17T11:34:18.766Z,52.92
2017-07-17T11:35:18.794Z,52.73
2017-07-17T11:36:18.816Z,52.63
2017-07-17T11:37:18.843Z,52.44
2017-07-17T11:38:18.542Z,52.24
2017-07-17T11:39:18.576Z,52.05
2017-07-17T11:40:18.603Z,52.05
2017-07-17T11:41:18.941Z,52.08
2017-07-17T11:42:18.974Z,52.08
2017-07-17T11:43:18.677Z,52.05
2017-07-17T11:44:19.027Z,51.98
2017-07-17T11:45:19.058Z,52.05
2017-07-17T11:56:46.132Z,52.17
2017-07-17T11:58:46.509Z,51.86
2017-07-17T11:59:46.541Z,51.5
2017-07-17T12:00:46.559Z,52.08
2017-07-17T12:01:46.588Z,51.5
2017-07-17T12:02:46.612Z,51.1
2017-07-17T12:03:46.643Z,51.5
2017-07-17T12:04:46.679Z,51.4
2017-07-17T12:05:46.693Z,51.47
2017-07-17T12:06:46.722Z,51.59
2017-07-17T12:07:46.747Z,51.59
2017-07-17T12:08:46.779Z,51.47
2017-07-17T12:09:46.478Z,51.5
2017-07-17T12:10:46.840Z,51.4
2017-07-17T12:11:46.850Z,51.28
2017-07-17T12:12:46.881Z,51.68
2017-07-17T12:13:46.905Z,51.4
2017-07-17T12:14:46.608Z,51.37
2017-07-17T12:15:46.957Z,51.18
2017-07-17T12:16:46.985Z,51.1
2017-07-17T12:17:47.011Z,51.3
2017-07-17T12:18:47.046Z,51.4
2017-07-17T12:19:47.064Z,51.3
2017-07-17T12:20:47.089Z,51.5
2017-07-17T12:21:46.795Z,51.56
2017-07-17T12:22:46.821Z,51.86
2017-07-17T12:23:47.176Z,51.76
2017-07-17T12:24:47.199Z,52.34
2017-07-17T12:25:47.223Z,52.34
2017-07-17T12:26:47.256Z,52.34
2017-07-17T12:27:47.280Z,52.05
2017-07-17T12:28:46.981Z,52.14
2017-07-17T12:29:47.331Z,52.24
2017-07-17T12:30:47.038Z,51.95
2017-07-17T12:31:47.382Z,51.47
2017-07-17T12:32:47.409Z,51.86
2017-07-17T12:33:47.562Z,52.34
2017-07-17T12:34:47.244Z,52.05
2017-07-17T12:35:47.167Z,52.05
2017-07-17T12:36:47.537Z,52.34
2017-07-17T12:37:47.553Z,52.34
2017-07-17T12:38:47.578Z,52.14
2017-07-17T12:39:47.598Z,52.34
2017-07-17T12:40:47.623Z,51.76
2017-07-17T12:41:47.323Z,51.95
2017-07-17T12:42:47.351Z,52.05
2017-07-17T12:43:47.377Z,52.53
2017-07-17T12:44:47.404Z,52.53
2017-07-17T12:45:47.756Z,51.95
2017-07-17T12:46:47.793Z,52.44
2017-07-17T12:47:47.809Z,52.34
2017-07-17T12:48:47.515Z,52.44
2017-07-17T12:49:47.534Z,52.27
2017-07-17T12:50:47.890Z,52.27
2017-07-17T12:51:47.924Z,52.36
2017-07-17T12:52:47.952Z,52.14
2017-07-17T12:53:48.068Z,52.17
2017-07-17T12:54:48.093Z,52.05
2017-07-17T12:55:48.092Z,51.68
2017-07-17T12:56:47.725Z,52.27
2017-07-17T12:57:48.099Z,51.59
2017-07-17T12:58:48.097Z,51.88
2017-07-17T12:59:48.123Z,51.32
2017-07-17T13:00:47.828Z,50.94
2017-07-17T13:01:48.256Z,51.13
2017-07-17T13:02:47.887Z,50.84
2017-07-17T13:03:48.254Z,50.65
2017-07-17T13:04:48.382Z,49.87
2017-07-17T13:05:48.296Z,49.8